createdAt,value
2019-05-05T00:01:01.644Z,98240.48
2019-05-05T00:03:37.804Z,98242.38
2019-05-05T00:06:05.680Z,98241.06
2019-05-05T00:08:35.144Z,98243.48
2019-05-05T00:11:21.822Z,98243.48
2019-05-05T00:14:06.012Z,98245.64
2019-05-05T00:16:45.323Z,98240.34
2019-05-05T00:19:12.513Z,98235.75
2019-05-05T00:21:40.291Z,98230.41
2019-05-05T00:24:07.569Z,98228.28
2019-05-05T00:26:35.438Z,98230.14
2019-05-05T00:29:04.389Z,98239.48
2019-05-05T00:31:31.932Z,98242.42
2019-05-05T00:33:59.742Z,98238.16
2019-05-05T00:36:27.042Z,98241.37
2019-05-05T00:38:55.177Z,98242.22
2019-05-05T00:41:25.169Z,98246.45
2019-05-05T00:43:52.604Z,98252.06
2019-05-05T00:46:26.148Z,98252.06
2019-05-05T00:48:55.026Z,98262.77
2019-05-05T00:51:24.453Z,98263.08
2019-05-05T00:53:52.655Z,98266.78
2019-05-05T00:56:19.808Z,98265.95
2019-05-05T00:58:52.781Z,98274.00
2019-05-05T01:01:44.876Z,98273.44
2019-05-05T01:04:14.596Z,98277.70
2019-05-05T01:06:45.014Z,98267.35
2019-05-05T01:09:17.490Z,98267.35
2019-05-05T01:11:44.755Z,98291.09
2019-05-05T01:14:14.323Z,98291.86
2019-05-05T01:16:42.104Z,98303.59
2019-05-05T01:19:09.569Z,98298.51
2019-05-05T01:21:36.888Z,98304.42
2019-05-05T01:24:05.119Z,98311.08
2019-05-05T01:26:35.217Z,98310.04
2019-05-05T01:29:05.352Z,98304.18
2019-05-05T01:32:36.526Z,98309.98
2019-05-05T01:35:05.392Z,98315.39
2019-05-05T01:37:38.205Z,98315.64
2019-05-05T01:40:17.059Z,98318.08
2019-05-05T01:42:45.268Z,98318.31
2019-05-05T01:45:12.503Z,98325.77
2019-05-05T01:47:39.916Z,98322.31
2019-05-05T01:50:17.254Z,98327.41
2019-05-05T01:52:36.642Z,98323.41
2019-05-05T01:55:05.289Z,98318.86
2019-05-05T01:57:34.403Z,98314.61
2019-05-05T02:00:04.270Z,98314.56
2019-05-05T02:02:31.839Z,98322.56
2019-05-05T02:04:59.297Z,98320.73
2019-05-05T02:07:26.844Z,98331.42
2019-05-05T02:09:55.390Z,98329.27
2019-05-05T02:12:24.672Z,98317.81
2019-05-05T02:14:52.048Z,98317.81
2019-05-05T02:17:19.808Z,98319.13
2019-05-05T02:19:47.082Z,98319.41
2019-05-05T02:22:14.751Z,98318.88
2019-05-05T02:24:44.239Z,98325.02
2019-05-05T02:27:11.701Z,98327.69
2019-05-05T02:29:44.782Z,98331.13
2019-05-05T02:32:22.050Z,98329.03
2019-05-05T02:34:56.366Z,98330.08
2019-05-05T02:37:25.646Z,98326.34
2019-05-05T02:39:58.916Z,98323.69
2019-05-05T02:42:24.788Z,98324.50
2019-05-05T02:44:51.096Z,98328.48
2019-05-05T02:47:34.999Z,98334.88
2019-05-05T02:50:05.400Z,98340.50
2019-05-05T02:52:34.665Z,98345.54
2019-05-05T02:55:04.068Z,98349.03
2019-05-05T02:57:31.441Z,98353.03
2019-05-05T03:00:16.293Z,98342.08
2019-05-05T03:02:43.916Z,98354.87
2019-05-05T03:05:11.111Z,98358.09
2019-05-05T03:07:38.321Z,98363.70
2019-05-05T03:10:06.129Z,98353.30
2019-05-05T03:12:34.612Z,98359.14
2019-05-05T03:15:04.085Z,98359.14
2019-05-05T03:17:33.955Z,98362.08
2019-05-05T03:20:01.112Z,98363.72
2019-05-05T03:22:28.511Z,98362.63
2019-05-05T03:24:55.723Z,98362.63
2019-05-05T03:27:23.758Z,98355.98
2019-05-05T03:29:53.404Z,98355.98
2019-05-05T03:32:21.072Z,98370.64
2019-05-05T03:34:48.532Z,98371.16
2019-05-05T03:37:15.805Z,98371.16
2019-05-05T03:39:48.555Z,98369.06
2019-05-05T03:42:26.283Z,98375.17
2019-05-05T03:44:56.211Z,98373.28
2019-05-05T03:47:24.132Z,98390.36
2019-05-05T03:49:53.522Z,98387.95
2019-05-05T03:52:20.955Z,98383.45
2019-05-05T03:54:48.960Z,98387.70
2019-05-05T03:57:16.235Z,98394.62
2019-05-05T03:59:44.441Z,98387.44
2019-05-05T04:02:20.554Z,98399.44
2019-05-05T04:04:50.315Z,98394.91
2019-05-05T04:07:17.625Z,98388.49
2019-05-05T04:09:44.830Z,98386.11
2019-05-05T04:12:13.729Z,98383.95
2019-05-05T04:14:44.036Z,98383.95
2019-05-05T04:17:34.324Z,98381.28
2019-05-05T04:20:24.205Z,98385.57
2019-05-05T04:22:54.075Z,98385.57
2019-05-05T04:25:21.401Z,98386.91
2019-05-05T04:27:49.610Z,98394.08
2019-05-05T04:30:17.254Z,98383.41
2019-05-05T04:32:44.838Z,98393.83
2019-05-05T04:35:14.042Z,98389.57
2019-05-05T04:37:43.695Z,98392.20
2019-05-05T04:41:45.470Z,98396.20
2019-05-05T04:44:14.870Z,98396.20
2019-05-05T04:46:44.347Z,98393.54
2019-05-05T04:49:37.898Z,98397.03
2019-05-05T04:52:08.323Z,98398.11
2019-05-05T04:54:55.651Z,98397.02
2019-05-05T04:57:24.000Z,98397.02
2019-05-05T04:59:53.958Z,98401.03
2019-05-05T05:02:30.050Z,98408.23
2019-05-05T05:05:12.129Z,98409.56
2019-05-05T05:07:39.613Z,98409.58
2019-05-05T05:10:06.907Z,98411.16
2019-05-05T05:12:34.322Z,98421.54
2019-05-05T05:15:04.124Z,98424.50
2019-05-05T05:17:39.611Z,98423.69
2019-05-05T05:20:07.156Z,98428.48
2019-05-05T05:22:34.361Z,98429.55
2019-05-05T05:25:01.549Z,98427.94
2019-05-05T05:27:28.732Z,98433.01
2019-05-05T05:29:55.935Z,98434.09
2019-05-05T05:32:24.728Z,98440.24
2019-05-05T05:34:54.300Z,98444.76
2019-05-05T05:37:24.006Z,98447.42
2019-05-05T05:40:04.078Z,98451.42
2019-05-05T05:42:33.461Z,98461.27
2019-05-05T05:45:29.710Z,98465.02
2019-05-05T05:48:15.733Z,98465.02
2019-05-05T05:50:54.508Z,98476.76
2019-05-05T05:53:21.725Z,98481.02
2019-05-05T05:55:49.554Z,98483.42
2019-05-05T05:58:17.612Z,98489.02
2019-05-05T06:00:45.151Z,98495.14
2019-05-05T06:03:14.160Z,98503.14
2019-05-05T06:05:43.657Z,98503.14
2019-05-05T06:08:10.886Z,98505.28
2019-05-05T06:10:38.353Z,98512.46
2019-05-05T06:13:05.605Z,98507.68
2019-05-05T06:15:33.967Z,98507.68
2019-05-05T06:18:01.294Z,98511.68
2019-05-05T06:20:28.828Z,98516.46
2019-05-05T06:22:55.696Z,98516.48
2019-05-05T06:25:26.539Z,98515.41
2019-05-05T06:27:53.975Z,98518.08
2019-05-05T06:30:21.442Z,98522.36
2019-05-05T06:32:49.579Z,98522.86
2019-05-05T06:35:16.907Z,98526.34
2019-05-05T06:37:54.252Z,98526.34
2019-05-05T06:40:28.813Z,98526.09
2019-05-05T06:43:10.603Z,98528.48
2019-05-05T06:45:44.385Z,98532.47
2019-05-05T06:48:13.456Z,98537.56
2019-05-05T06:50:41.047Z,98538.59
2019-05-05T06:53:08.330Z,98539.67
2019-05-05T06:55:35.616Z,98529.52
2019-05-05T06:58:04.585Z,98535.64
2019-05-05T07:00:31.834Z,98540.16
2019-05-05T07:02:59.121Z,98540.16
2019-05-05T07:05:26.290Z,98538.57
2019-05-05T07:07:53.785Z,98547.39
2019-05-05T07:10:21.481Z,98540.98
2019-05-05T07:12:49.663Z,98540.98
2019-05-05T07:15:17.194Z,98553.80
2019-05-05T07:17:44.474Z,98558.84
2019-05-05T07:20:13.602Z,98560.98
2019-05-05T07:22:41.021Z,98564.47
2019-05-05T07:25:08.421Z,98567.64
2019-05-05T07:27:36.201Z,98569.27
2019-05-05T07:30:04.885Z,98574.61
2019-05-05T07:32:33.848Z,98580.99
2019-05-05T07:35:26.839Z,98581.00
2019-05-05T07:37:54.068Z,98587.16
2019-05-05T07:40:21.247Z,98579.66
2019-05-05T07:42:48.600Z,98579.66
2019-05-05T07:45:22.123Z,98601.23
2019-05-05T07:47:47.430Z,98601.23
2019-05-05T07:50:26.501Z,98606.05
2019-05-05T07:52:43.892Z,98614.87
2019-05-05T07:55:11.353Z,98622.07
2019-05-05T07:57:38.843Z,98625.05
2019-05-05T08:00:06.366Z,98612.99
2019-05-05T08:02:34.004Z,98628.75
2019-05-05T08:05:01.332Z,98628.75
2019-05-05T08:07:29.306Z,98624.75
2019-05-05T08:09:56.511Z,98631.68
2019-05-05T08:12:25.048Z,98634.34
2019-05-05T08:14:53.696Z,98638.36
2019-05-05T08:17:44.750Z,98633.27
2019-05-05T08:20:25.094Z,98631.14
2019-05-05T08:22:53.668Z,98639.69
2019-05-05T08:25:40.348Z,98645.29
2019-05-05T08:28:29.431Z,98638.61
2019-05-05T08:31:05.128Z,98635.69
2019-05-05T08:33:33.645Z,98644.75
2019-05-05T08:36:01.003Z,98633.49
2019-05-05T08:38:28.177Z,98633.49
2019-05-05T08:40:55.484Z,98633.75
2019-05-05T08:43:24.174Z,98635.86
2019-05-05T08:45:51.453Z,98635.30
2019-05-05T08:48:18.679Z,98628.31
2019-05-05T08:50:46.170Z,98630.70
2019-05-05T08:53:15.337Z,98629.09
2019-05-05T08:55:44.319Z,98630.16
2019-05-05T08:58:11.816Z,98625.07
2019-05-05T09:00:39.045Z,98624.52
2019-05-05T09:03:06.662Z,98625.00
2019-05-05T09:05:34.452Z,98627.89
2019-05-05T09:08:01.651Z,98622.52
2019-05-05T09:10:29.318Z,98622.52
2019-05-05T09:12:57.178Z,98619.32
2019-05-05T09:15:24.468Z,98621.75
2019-05-05T09:17:54.239Z,98621.47
2019-05-05T09:20:21.181Z,98613.19
2019-05-05T09:22:48.454Z,98609.41
2019-05-05T09:25:39.171Z,98608.02
2019-05-05T09:28:23.831Z,98606.42
2019-05-05T09:30:53.538Z,98600.77
2019-05-05T09:33:21.258Z,98594.81
2019-05-05T09:35:48.907Z,98599.52
2019-05-05T09:38:16.353Z,98590.39
2019-05-05T09:40:44.106Z,98595.59
2019-05-05T09:43:11.513Z,98592.91
2019-05-05T09:45:38.729Z,98592.20
2019-05-05T09:48:06.200Z,98599.75
2019-05-05T09:50:34.191Z,98601.97
2019-05-05T09:53:04.039Z,98609.24
2019-05-05T09:55:30.937Z,98609.52
2019-05-05T09:57:58.537Z,98593.34
2019-05-05T10:00:26.555Z,98593.34
2019-05-05T10:02:54.504Z,98609.52
2019-05-05T10:05:23.640Z,98608.89
2019-05-05T10:07:50.859Z,98607.50
2019-05-05T10:10:18.807Z,98617.92
2019-05-05T10:12:46.408Z,98620.30
2019-05-05T10:15:13.939Z,98615.22
2019-05-05T10:17:43.136Z,98617.59
2019-05-05T10:20:10.326Z,98616.20
2019-05-05T10:22:37.743Z,98616.35
2019-05-05T10:25:24.156Z,98617.56
2019-05-05T10:27:53.819Z,98616.02
2019-05-05T10:30:20.678Z,98611.91
2019-05-05T10:32:47.997Z,98622.34
2019-05-05T10:35:15.178Z,98617.91
2019-05-05T10:37:43.898Z,98619.33
2019-05-05T10:40:13.224Z,98612.45
2019-05-05T10:42:49.499Z,98610.69
2019-05-05T10:45:17.726Z,98614.02
2019-05-05T10:47:45.094Z,98616.50
2019-05-05T10:50:13.888Z,98622.36
2019-05-05T10:52:41.297Z,98623.14
2019-05-05T10:55:08.480Z,98620.52
2019-05-05T10:57:36.686Z,98627.27
2019-05-05T11:00:12.387Z,98627.85
2019-05-05T11:02:34.638Z,98628.66
2019-05-05T11:05:03.943Z,98623.61
2019-05-05T11:07:31.160Z,98627.12
2019-05-05T11:09:58.778Z,98627.67
2019-05-05T11:12:26.058Z,98619.90
2019-05-05T11:14:54.469Z,98618.78
2019-05-05T11:17:24.784Z,98624.34
2019-05-05T11:19:51.867Z,98568.53
2019-05-05T11:22:19.136Z,98620.70
2019-05-05T11:24:57.692Z,98622.52
2019-05-05T11:27:15.563Z,98609.72
2019-05-05T11:30:03.806Z,98609.72
2019-05-05T11:32:49.958Z,98622.48
2019-05-05T11:35:18.876Z,98624.04
2019-05-05T11:37:46.625Z,98619.25
2019-05-05T11:40:13.979Z,98613.36
2019-05-05T11:42:41.455Z,98614.20
2019-05-05T11:45:09.458Z,98619.09
2019-05-05T11:47:37.290Z,98626.09
2019-05-05T11:50:04.898Z,98624.23
2019-05-05T11:52:33.708Z,98626.63
2019-05-05T11:55:10.662Z,98632.81
2019-05-05T11:57:30.297Z,98639.76
2019-05-05T11:59:58.057Z,98638.73
2019-05-05T12:02:25.350Z,98636.86
2019-05-05T12:04:54.066Z,98624.36
2019-05-05T12:07:23.611Z,98624.36
2019-05-05T12:09:55.090Z,98630.17
2019-05-05T12:12:22.514Z,98639.51
2019-05-05T12:14:53.745Z,98621.64
2019-05-05T12:17:34.157Z,98621.64
2019-05-05T12:20:04.750Z,98636.49
2019-05-05T12:22:34.040Z,98637.24
2019-05-05T12:25:04.161Z,98636.44
2019-05-05T12:27:35.794Z,98635.53
2019-05-05T12:30:08.758Z,98637.19
2019-05-05T12:32:36.238Z,98634.19
2019-05-05T12:35:04.614Z,98629.89
2019-05-05T12:37:31.768Z,98631.13
2019-05-05T12:39:58.943Z,98633.46
2019-05-05T12:42:26.443Z,98629.13
2019-05-05T12:45:04.195Z,98628.87
2019-05-05T12:47:50.958Z,98626.97
2019-05-05T12:50:18.375Z,98623.59
2019-05-05T12:52:45.591Z,98623.06
2019-05-05T12:55:14.274Z,98624.22
2019-05-05T12:57:43.496Z,98620.80
2019-05-05T13:00:11.731Z,98622.52
2019-05-05T13:02:38.904Z,98618.00
2019-05-05T13:05:06.198Z,98618.00
2019-05-05T13:07:33.908Z,98625.81
2019-05-05T13:10:01.222Z,98620.45
2019-05-05T13:12:29.306Z,98613.23
2019-05-05T13:14:56.727Z,98613.95
2019-05-05T13:17:24.544Z,98613.70
2019-05-05T13:20:06.882Z,98613.14
2019-05-05T13:23:08.985Z,98621.70
2019-05-05T13:26:08.673Z,98611.71
2019-05-05T13:28:36.533Z,98611.89
2019-05-05T13:31:04.679Z,98612.03
2019-05-05T13:33:33.640Z,98615.27
2019-05-05T13:36:01.459Z,98607.03
2019-05-05T13:38:28.654Z,98613.83
2019-05-05T13:40:56.138Z,98592.11
2019-05-05T13:43:23.857Z,98615.66
2019-05-05T13:46:26.183Z,98609.28
2019-05-05T13:48:55.289Z,98612.23
2019-05-05T13:51:23.991Z,98607.63
2019-05-05T13:53:51.437Z,98596.62
2019-05-05T13:56:18.643Z,98602.41
2019-05-05T13:58:46.203Z,98598.50
2019-05-05T14:01:14.519Z,98593.53
2019-05-05T14:03:41.929Z,98590.52
2019-05-05T14:06:09.827Z,98601.23
2019-05-05T14:08:37.147Z,98590.84
2019-05-05T14:11:04.486Z,98591.17
2019-05-05T14:13:34.058Z,98590.50
2019-05-05T14:16:00.896Z,98592.22
2019-05-05T14:18:28.715Z,98578.09
2019-05-05T14:20:56.053Z,98587.44
2019-05-05T14:23:24.018Z,98581.05
2019-05-05T14:25:51.475Z,98575.73
2019-05-05T14:28:18.664Z,98576.51
2019-05-05T14:30:54.691Z,98573.58
2019-05-05T14:33:29.206Z,98574.39
2019-05-05T14:36:19.048Z,98575.77
2019-05-05T14:38:49.595Z,98574.39
2019-05-05T14:41:17.339Z,98575.98
2019-05-05T14:43:44.583Z,98570.06
2019-05-05T14:46:14.366Z,98577.28
2019-05-05T14:48:41.446Z,98577.34
2019-05-05T14:51:08.981Z,98582.27
2019-05-05T14:53:36.971Z,98575.61
2019-05-05T14:56:04.722Z,98572.18
2019-05-05T14:58:32.162Z,98578.06
2019-05-05T15:00:59.378Z,98576.45
2019-05-05T15:03:26.604Z,98578.34
2019-05-05T15:06:00.559Z,98577.75
2019-05-05T15:08:54.505Z,98576.14
2019-05-05T15:11:41.273Z,98576.29
2019-05-05T15:14:08.489Z,98584.25
2019-05-05T15:16:35.747Z,98577.00
2019-05-05T15:19:03.913Z,98576.97
2019-05-05T15:21:33.869Z,98577.25
2019-05-05T15:24:01.932Z,98572.70
2019-05-05T15:26:29.799Z,98579.95
2019-05-05T15:29:01.381Z,98585.34
2019-05-05T15:31:26.141Z,98587.28
2019-05-05T15:33:53.603Z,98584.95
2019-05-05T15:36:20.870Z,98584.95
2019-05-05T15:38:48.203Z,98591.66
2019-05-05T15:41:15.431Z,98586.03
2019-05-05T15:43:44.109Z,98590.30
2019-05-05T15:46:11.515Z,98595.93
2019-05-05T15:48:39.028Z,98594.09
2019-05-05T15:51:06.351Z,98605.30
2019-05-05T15:53:33.638Z,98591.91
2019-05-05T15:56:01.096Z,98594.31
2019-05-05T15:58:28.334Z,98597.80
2019-05-05T16:00:56.428Z,98606.63
2019-05-05T16:03:23.677Z,98605.10
2019-05-05T16:05:50.876Z,98600.84
2019-05-05T16:08:18.232Z,98607.27
2019-05-05T16:10:46.587Z,98608.11
2019-05-05T16:13:14.022Z,98610.78
2019-05-05T16:16:01.101Z,98608.11
2019-05-05T16:19:07.899Z,98609.45
2019-05-05T16:21:39.239Z,98618.30
2019-05-05T16:24:15.911Z,98617.05
2019-05-05T16:26:43.234Z,98622.11
2019-05-05T16:29:10.764Z,98619.21
2019-05-05T16:31:38.083Z,98619.48
2019-05-05T16:34:05.747Z,98612.80
2019-05-05T16:36:33.605Z,98614.37
2019-05-05T16:39:00.907Z,98614.37
2019-05-05T16:41:28.258Z,98610.03
2019-05-05T16:43:55.482Z,98615.08
2019-05-05T16:47:29.030Z,98609.67
2019-05-05T16:49:56.425Z,98610.28
2019-05-05T16:52:29.882Z,98612.67
2019-05-05T16:55:23.890Z,98616.69
2019-05-05T16:57:51.883Z,98616.69
2019-05-05T17:00:21.519Z,98616.99
2019-05-05T17:02:48.616Z,98620.98
2019-05-05T17:05:16.403Z,98615.94
2019-05-05T17:07:43.935Z,98602.41
2019-05-05T17:10:11.140Z,98621.86
2019-05-05T17:12:38.664Z,98621.86
2019-05-05T17:15:23.658Z,98621.33
2019-05-05T17:17:59.466Z,98618.16
2019-05-05T17:20:28.436Z,98622.39
2019-05-05T17:22:58.577Z,98621.27
2019-05-05T17:25:26.035Z,98627.59
2019-05-05T17:27:54.576Z,98627.59
2019-05-05T17:30:24.513Z,98617.95
2019-05-05T17:32:54.425Z,98617.95
2019-05-05T17:35:23.925Z,98638.55
2019-05-05T17:37:53.740Z,98637.41
2019-05-05T17:40:43.858Z,98631.50
2019-05-05T17:43:34.115Z,98638.17
2019-05-05T17:46:08.030Z,98638.17
2019-05-05T17:48:53.875Z,98634.98
2019-05-05T17:51:39.539Z,98634.98
2019-05-05T17:54:21.557Z,98633.95
2019-05-05T17:56:52.444Z,98636.36
2019-05-05T17:59:19.905Z,98635.30
2019-05-05T18:01:47.268Z,98637.91
2019-05-05T18:04:14.810Z,98640.84
2019-05-05T18:06:46.631Z,98642.99
2019-05-05T18:09:17.481Z,98642.74
2019-05-05T18:12:04.352Z,98648.12
2019-05-05T18:14:33.545Z,98648.68
2019-05-05T18:17:00.990Z,98642.21
2019-05-05T18:19:28.250Z,98648.12
2019-05-05T18:21:55.667Z,98649.96
2019-05-05T18:24:24.328Z,98647.29
2019-05-05T18:26:53.655Z,98653.14
2019-05-05T18:29:24.125Z,98656.66
2019-05-05T18:31:53.393Z,98656.12
2019-05-05T18:34:20.567Z,98658.30
2019-05-05T18:36:48.021Z,98655.90
2019-05-05T18:39:15.215Z,98663.39
2019-05-05T18:41:48.096Z,98666.38
2019-05-05T18:44:24.169Z,98666.38
2019-05-05T18:47:14.794Z,98655.70
2019-05-05T18:49:40.836Z,98673.59
2019-05-05T18:52:08.499Z,98683.48
2019-05-05T18:54:35.804Z,98677.09
2019-05-05T18:57:05.278Z,98656.22
2019-05-05T18:59:33.540Z,98677.56
2019-05-05T19:02:26.752Z,98681.58
2019-05-05T19:05:04.884Z,98676.22
2019-05-05T19:07:36.514Z,98684.58
2019-05-05T19:10:04.229Z,98682.50
2019-05-05T19:12:31.721Z,98692.44
2019-05-05T19:14:59.397Z,98687.64
2019-05-05T19:17:28.653Z,98693.54
2019-05-05T19:19:59.954Z,98696.52
2019-05-05T19:22:27.134Z,98700.52
2019-05-05T19:24:58.703Z,98697.06
2019-05-05T19:27:26.363Z,98699.20
2019-05-05T19:29:53.781Z,98700.05
2019-05-05T19:32:21.462Z,98709.41
2019-05-05T19:34:48.635Z,98703.27
2019-05-05T19:37:16.160Z,98703.27
2019-05-05T19:39:43.715Z,98710.51
2019-05-05T19:42:11.321Z,98704.09
2019-05-05T19:44:38.910Z,98705.98
2019-05-05T19:47:18.643Z,98714.00
2019-05-05T19:49:54.988Z,98670.25
2019-05-05T19:52:24.030Z,98715.62
2019-05-05T19:54:51.600Z,98715.62
2019-05-05T19:57:18.784Z,98715.11
2019-05-05T19:59:46.866Z,98711.08
2019-05-05T20:02:14.368Z,98710.84
2019-05-05T20:04:41.799Z,98714.59
2019-05-05T20:07:09.104Z,98722.32
2019-05-05T20:09:36.439Z,98719.36
2019-05-05T20:12:04.154Z,98717.73
2019-05-05T20:14:31.529Z,98713.45
2019-05-05T20:17:04.897Z,98713.69
2019-05-05T20:19:35.033Z,98711.00
2019-05-05T20:22:02.236Z,98712.58
2019-05-05T20:24:29.748Z,98712.58
2019-05-05T20:26:56.953Z,98709.64
2019-05-05T20:29:24.334Z,98707.77
2019-05-05T20:31:54.806Z,98705.88
2019-05-05T20:34:43.822Z,98705.11
2019-05-05T20:37:14.337Z,98707.22
2019-05-05T20:39:43.993Z,98712.58
2019-05-05T20:42:11.561Z,98721.11
2019-05-05T20:44:39.029Z,98721.11
2019-05-05T20:47:06.675Z,98717.36
2019-05-05T20:49:35.726Z,98717.89
2019-05-05T20:52:03.997Z,98713.06
2019-05-05T20:54:31.572Z,98706.10
2019-05-05T20:56:59.289Z,98707.47
2019-05-05T20:59:30.605Z,98703.45
2019-05-05T21:01:56.126Z,98703.70
2019-05-05T21:04:24.693Z,98705.81
2019-05-05T21:06:52.018Z,98702.63
2019-05-05T21:09:19.591Z,98691.91
2019-05-05T21:11:47.481Z,98698.31
2019-05-05T21:14:14.944Z,98702.35
2019-05-05T21:16:44.053Z,98702.35
2019-05-05T21:19:14.062Z,98697.55
2019-05-05T21:21:44.644Z,98696.77
2019-05-05T21:24:11.931Z,98706.37
2019-05-05T21:27:00.633Z,98700.19
2019-05-05T21:29:38.636Z,98697.53
2019-05-05T21:31:57.301Z,98696.95
2019-05-05T21:34:24.907Z,98701.50
2019-05-05T21:39:19.274Z,98696.16
2019-05-05T21:41:46.473Z,98696.16
2019-05-05T21:44:14.818Z,98695.06
2019-05-05T21:46:43.779Z,98699.08
2019-05-05T21:49:13.452Z,98700.66
2019-05-05T21:52:05.862Z,98700.14
2019-05-05T21:54:47.000Z,98698.83
2019-05-05T21:57:34.555Z,98699.67
2019-05-05T22:00:04.729Z,98699.97
2019-05-05T22:02:31.975Z,98705.59
2019-05-05T22:04:59.485Z,98701.37
2019-05-05T22:07:27.073Z,98699.27
2019-05-05T22:09:54.690Z,98703.80
2019-05-05T22:12:24.144Z,98705.14
2019-05-05T22:14:51.571Z,98708.09
2019-05-05T22:17:18.737Z,98702.79
2019-05-05T22:19:58.324Z,98700.66
2019-05-05T22:22:28.131Z,98709.50
2019-05-05T22:24:55.305Z,98699.89
2019-05-05T22:27:23.766Z,98699.89
2019-05-05T22:29:51.382Z,98707.11
2019-05-05T22:32:18.649Z,98697.50
2019-05-05T22:34:45.838Z,98698.30
2019-05-05T22:37:14.240Z,98702.28
2019-05-05T22:39:41.771Z,98702.28
2019-05-05T22:42:09.023Z,98702.03
2019-05-05T22:44:36.616Z,98693.80
2019-05-05T22:47:04.663Z,98693.80
2019-05-05T22:49:32.163Z,98700.98
2019-05-05T22:51:59.711Z,98706.88
2019-05-05T22:54:26.881Z,98702.61
2019-05-05T22:56:54.095Z,98697.55
2019-05-05T22:59:24.162Z,98701.29
2019-05-05T23:01:51.566Z,98691.95
2019-05-05T23:04:43.703Z,98703.16
2019-05-05T23:07:17.375Z,98702.08
2019-05-05T23:09:45.688Z,98708.77
2019-05-05T23:12:13.660Z,98705.03
2019-05-05T23:14:41.069Z,98706.39
2019-05-05T23:17:31.174Z,98706.14
2019-05-05T23:20:29.947Z,98706.68
2019-05-05T23:23:17.490Z,98709.60
2019-05-05T23:25:48.845Z,98711.49
2019-05-05T23:28:18.687Z,98707.47
2019-05-05T23:30:48.070Z,98712.28
2019-05-05T23:33:17.254Z,98714.18
2019-05-05T23:35:46.664Z,98708.84
2019-05-05T23:38:15.768Z,98709.09
2019-05-05T23:40:44.822Z,98714.45
2019-05-05T23:43:14.034Z,98712.55
2019-05-05T23:45:44.820Z,98709.38
2019-05-05T23:48:14.449Z,98705.37
2019-05-05T23:50:44.730Z,98707.23
2019-05-05T23:53:14.151Z,98700.56
2019-05-05T23:55:44.060Z,98707.75
2019-05-05T23:58:14.409Z,98693.34
